• vieta
  • image
  • image
  • image
mod_vvisit_countermod_vvisit_countermod_vvisit_countermod_vvisit_countermod_vvisit_countermod_vvisit_countermod_vvisit_counter
mod_vvisit_counterŠiandien702
mod_vvisit_counterVakar1017
mod_vvisit_counterŠią savaitę1719
mod_vvisit_counterPraėjusią savaitę5315
mod_vvisit_counterŠį mėnesį17519
mod_vvisit_counterPraėjusį mėnesį23031
mod_vvisit_counterViso1003476

Mes turime: 24 svečius online
Jūsų IP: 54.166.207.223
 , 
Šiandien: Spa 23, 2018
Oro uostas / Naujienos / 2015 Gegužė

2015 Gegužė

Š.m. gegužės 28 d. iš Uzbekistano į tarptautinį Šiaulių oro uostą atskrido orlaivis IL-76TD. Šiuo orlaiviu iš Lietuvos į Uzbekistaną buvo išgabenta Lietuvoje pagaminta oro uosto valdymui skirta įrangą. Krovinio ekspedijavimą atliko UAB „Rikusta“.

UAB „Rikusta“ teigimu, vykdytas projektas yra tęstinis, artimiausiu metu nusimato pakartotiniai skrydžiai į Šiaulius.


IL76 01IL76 02

Šiandien

Antradienis, 23 Spalis 2018

Orų prognozė aviacijai

[source: ADDS]
METAR
EYSA 231850Z 26012KT 9999 -SHRA BKN012 BKN019CB OVC026 06/06 Q0984 WHT NOSIG =
TAF EYSA 231711Z 2318/2403 27014KT 9000 BKN025 TEMPO 2318/2324 5000 SHRA SCT005 BKN015CB TEMPO 2400/2403 30024G34KT BKN015CB
TAF
TAF EYSA 231711Z 2318/2403 27014KT 9000 BKN025 TEMPO 2318/2324 5000 SHRA SCT005 BKN015CB TEMPO 2400/2403 30024G34KT BKN015CB =
SR / SS: 05:14 / 15:10 UTC (EYSA 2018-10-23)

Paieška

Lankytojai

Mes turime 24 svečius online

tic logo lt